Sponsor www.jackysshop.nl


METAR rapporten vliegvelden

   
EBAW - Antwerp
Gewijzigd: 18-06-2018 06:50
Grotendeels bewolkt  
Grotendeels bewolkt  
   Wind: ZW 16.7 km/h
Wind: ZW 16.7 km/h
Temperatuur: 16°C
Dauwpunt: 12°C
Vochtigheid: 77%
Barometer: 1019 hPa
Bewolking: Grotendeels bewolkt
Zicht: meer dan 10 km
Bewolking: Licht bewolkt 1500 ft,
Grotendeels bewolkt 2800 ft
EBAW 180450Z 23009KT 200V260 9999 FEW015 BKN028 16/12 Q1019 NOSIG
EBLG - Li├Ęge
Gewijzigd: 18-06-2018 06:50
Grotendeels bewolkt  
Grotendeels bewolkt  
   Wind: ZZW 13 km/h
Wind: ZZW 13 km/h
Temperatuur: 16°C
Dauwpunt: 11°C
Vochtigheid: 72%
Barometer: 1020 hPa
Bewolking: Grotendeels bewolkt
Zicht: meer dan 10 km
Bewolking: Gedeeltelijk bewolkt 2000 ft,
Grotendeels bewolkt 3600 ft
EBLG 180450Z 20007KT 9999 SCT020 BKN036 16/11 Q1020 NOSIG
EBCV - Mons/Bergen
Gewijzigd: 18-06-2018 06:55
Bewolking  
Bewolking  
   Wind: ZZW 9.3 km/h
Wind: ZZW 9.3 km/h
Temperatuur: 15°C
Dauwpunt: 13°C
Vochtigheid: 88%
Barometer: 1020 hPa
Bewolking: Bewolking
Zicht: meer dan 10 km
Bewolking: Bewolking 1700 ft
EBCV 180455Z AUTO 21005KT 9999 OVC017/// 15/13 Q1020 WHT
EHBK - Maastricht
Gewijzigd: 18-06-2018 06:55
Bewolking  
Bewolking  
   Wind: ZW 16.7 km/h
Wind: ZW 16.7 km/h
Temperatuur: 16°C
Dauwpunt: 11°C
Vochtigheid: 72%
Barometer: 1020 hPa
Bewolking: Bewolking
Zicht: meer dan 10 km
Bewolking: Gedeeltelijk bewolkt 2300 ft,
Bewolking 2600 ft
EHBK 180455Z AUTO 22009KT 9999 SCT023 OVC026 16/11 Q1020 NOSIG
ELLX - Luxemburg
Gewijzigd: 18-06-2018 06:50
Grotendeels bewolkt  
Grotendeels bewolkt  
   Wind: ZZW 9.3 km/h
Wind: ZZW 9.3 km/h
Temperatuur: 13°C
Dauwpunt: 11°C
Vochtigheid: 88%
Barometer: 1022 hPa
Bewolking: Grotendeels bewolkt
Zicht: meer dan 10 km
Bewolking: Grotendeels bewolkt 4000 ft
ELLX 180450Z 20005KT 9999 BKN040 13/11 Q1022 NOSIG
EBOS - Oostende
Gewijzigd: 18-06-2018 06:50
Grotendeels bewolkt  
Grotendeels bewolkt  
   Wind: ZZW 13 km/h
Wind: ZZW 13 km/h
Temperatuur: 15°C
Dauwpunt: 13°C
Vochtigheid: 88%
Barometer: 1018 hPa
Bewolking: Grotendeels bewolkt
Zicht: meer dan 10 km
Bewolking: Gedeeltelijk bewolkt 500 ft,
Grotendeels bewolkt 600 ft
EBOS 180450Z 21007KT 9999 SCT005 BKN006 15/13 Q1018 TEMPO 3000 -DZ

Script ontwikkeld door  Saratoga-weather.org Aangepast voor de template door  Weerstation Leuven